Time;durP1;ratioP1;P1;durP2;ratioP2;P2;SDS_P1;SDS_P2;PMS_P1;PMS_P2;Temp;Humidity;BMP_temperature;BMP_pressure;BME280_temperature;BME280_humidity;BME280_pressure;Samples;Min_cycle;Max_cycle;Signal;HPM_P1;HPM_P2
2022/02/27 00:00:10;;;;;;;9.18;3.70;;;;;;;0.45;99.09;102477.41;673942;29;962;-51
2022/02/27 00:00:34;;;;;;;8.50;3.22;;;;;;;0.43;98.77;102472.94;674515;29;868;-50
2022/02/27 00:00:55;;;;;;;10.00;3.60;;;;;;;0.40;99.26;102477.88;670432;29;4412;-54
2022/02/27 00:01:16;;;;;;;9.77;3.40;;;;;;;0.40;99.00;102475.31;672128;29;964;-52
2022/02/27 00:01:36;;;;;;;10.10;3.53;;;;;;;0.40;99.32;102476.22;671837;29;1922;-51
2022/02/27 00:01:56;;;;;;;8.73;3.43;;;;;;;0.47;98.51;102480.06;671625;29;3367;-51
2022/02/27 00:02:18;;;;;;;9.32;3.40;;;;;;;0.58;97.07;102473.97;672977;29;1363;-50
2022/02/27 00:02:39;;;;;;;11.70;3.70;;;;;;;0.60;96.68;102472.38;674158;29;1418;-51
2022/02/27 00:02:59;;;;;;;8.13;3.33;;;;;;;0.60;98.17;102477.50;679182;28;1079;-50
2022/02/27 00:03:20;;;;;;;8.13;3.42;;;;;;;0.59;98.92;102475.72;678975;29;845;-51
2022/02/27 00:03:40;;;;;;;8.17;3.30;;;;;;;0.57;99.09;102471.25;679707;29;786;-52
2022/02/27 00:04:00;;;;;;;8.73;3.17;;;;;;;0.58;98.40;102475.63;678752;28;4378;-52
2022/02/27 00:04:21;;;;;;;8.63;3.00;;;;;;;0.58;98.85;102473.06;679842;29;774;-53
2022/02/27 00:04:41;;;;;;;9.18;3.17;;;;;;;0.56;98.42;102475.53;679299;29;845;-50
2022/02/27 00:05:05;;;;;;;8.47;3.20;;;;;;;0.57;98.10;102476.41;677424;28;3440;-53
2022/02/27 00:05:25;;;;;;;8.50;3.47;;;;;;;0.54;98.34;102477.13;678606;28;1182;-50
2022/02/27 00:05:46;;;;;;;9.80;3.40;;;;;;;0.50;97.85;102480.28;677271;29;2215;-51
2022/02/27 00:06:06;;;;;;;9.38;3.42;;;;;;;0.47;97.77;102477.50;679321;28;1159;-52
2022/02/27 00:06:26;;;;;;;10.80;3.50;;;;;;;0.45;97.29;102479.09;679001;29;830;-51
2022/02/27 00:06:47;;;;;;;11.38;3.70;;;;;;;0.46;97.52;102480.88;679244;29;944;-54
2022/02/27 00:07:07;;;;;;;10.50;3.30;;;;;;;0.44;97.78;102480.75;677986;29;4435;-54
2022/02/27 00:07:28;;;;;;;10.77;3.35;;;;;;;0.45;98.81;102472.25;680324;29;998;-53
2022/02/27 00:07:48;;;;;;;9.23;3.17;;;;;;;0.46;98.53;102475.72;679205;29;821;-51
2022/02/27 00:08:08;;;;;;;9.52;3.17;;;;;;;0.44;97.68;102474.72;678079;28;3466;-51
2022/02/27 00:08:29;;;;;;;9.10;3.30;;;;;;;0.41;97.76;102479.69;679474;29;1519;-53
2022/02/27 00:08:49;;;;;;;7.47;3.20;;;;;;;0.39;97.64;102476.09;680519;29;1405;-51
2022/02/27 00:09:09;;;;;;;8.53;3.23;;;;;;;0.38;99.50;102469.19;678411;28;1101;-51
2022/02/27 00:09:30;;;;;;;8.90;3.20;;;;;;;0.39;100.00;102479.59;679739;29;1231;-51
2022/02/27 00:09:51;;;;;;;10.07;3.33;;;;;;;0.34;98.80;102478.38;680311;29;4392;-53
2022/02/27 00:10:11;;;;;;;9.07;3.50;;;;;;;0.33;99.11;102477.50;679221;28;1181;-53
2022/02/27 00:10:41;;;;;;;9.27;3.57;;;;;;;0.36;98.70;102475.91;679761;29;890;-51
2022/02/27 00:11:05;;;;;;;11.57;3.58;;;;;;;0.31;98.34;102479.06;679359;28;3924;-50
2022/02/27 00:11:25;;;;;;;9.63;3.30;;;;;;;0.35;98.69;102480.16;678993;28;2273;-51
2022/02/27 00:11:48;;;;;;;9.35;3.50;;;;;;;0.32;99.42;102475.72;678054;28;1111;-50
2022/02/27 00:12:09;;;;;;;9.93;3.38;;;;;;;0.33;98.96;102479.16;674587;29;973;-52
2022/02/27 00:12:29;;;;;;;11.43;3.30;;;;;;;0.32;98.49;102479.97;675636;29;750;-53
2022/02/27 00:12:50;;;;;;;9.80;3.10;;;;;;;0.31;98.65;102473.91;675543;29;920;-50
2022/02/27 00:13:10;;;;;;;8.67;3.10;;;;;;;0.33;98.55;102474.00;675481;29;4886;-53
2022/02/27 00:13:30;;;;;;;9.55;3.63;;;;;;;0.32;100.00;102479.97;675496;29;922;-50
2022/02/27 00:13:51;;;;;;;11.00;3.63;;;;;;;0.30;99.79;102474.69;676078;29;2026;-51
2022/02/27 00:14:11;;;;;;;9.18;3.22;;;;;;;0.29;98.90;102470.38;678256;28;938;-52
2022/02/27 00:14:31;;;;;;;7.70;3.20;;;;;;;0.31;98.81;102473.03;679121;29;1506;-50
2022/02/27 00:14:52;;;;;;;7.67;2.90;;;;;;;0.29;98.70;102472.94;679666;29;1428;-50
2022/02/27 00:15:12;;;;;;;8.75;3.45;;;;;;;0.28;98.72;102470.28;679373;29;972;-52
2022/02/27 00:15:32;;;;;;;8.47;3.40;;;;;;;0.27;99.00;102469.34;679559;29;892;-50
2022/02/27 00:15:53;;;;;;;10.57;3.38;;;;;;;0.28;99.91;102470.28;679163;29;4366;-50
2022/02/27 00:16:13;;;;;;;9.30;3.30;;;;;;;0.26;100.00;102475.28;679303;28;1452;-51
2022/02/27 00:16:33;;;;;;;9.60;3.13;;;;;;;0.27;100.00;102468.47;679106;29;792;-52
2022/02/27 00:16:54;;;;;;;9.63;3.13;;;;;;;0.28;100.00;102475.41;678557;28;3446;-55
2022/02/27 00:17:14;;;;;;;6.93;3.03;;;;;;;0.25;100.00;102475.19;678642;28;1206;-52
2022/02/27 00:17:38;;;;;;;8.60;3.13;;;;;;;0.25;100.00;102473.53;678551;28;1224;-51
2022/02/27 00:17:58;;;;;;;8.75;3.00;;;;;;;0.27;100.00;102473.63;678562;28;1010;-52
2022/02/27 00:18:18;;;;;;;9.10;3.17;;;;;;;0.28;99.89;102478.00;679042;29;1156;-51
2022/02/27 00:18:39;;;;;;;7.90;3.40;;;;;;;0.25;98.95;102473.53;680066;29;908;-56
2022/02/27 00:19:00;;;;;;;8.75;3.30;;;;;;;0.24;99.06;102476.00;678657;29;4319;-51
2022/02/27 00:19:26;;;;;;;8.68;3.30;;;;;;;0.22;98.91;102478.44;679678;29;794;-52
2022/02/27 00:19:46;;;;;;;8.65;3.63;;;;;;;0.19;99.12;102469.66;677896;28;3390;-54
2022/02/27 00:20:08;;;;;;;9.27;3.75;;;;;;;0.20;99.74;102469.75;677516;28;2154;-51
2022/02/27 00:20:30;;;;;;;9.07;3.17;;;;;;;0.22;99.63;102478.44;676129;29;2472;-51
2022/02/27 00:20:52;;;;;;;8.95;3.15;;;;;;;0.23;99.91;102477.66;675552;29;1140;-51
2022/02/27 00:21:12;;;;;;;9.57;3.50;;;;;;;0.22;100.00;102473.28;676160;29;933;-53
2022/02/27 00:21:33;;;;;;;8.82;3.53;;;;;;;0.23;100.00;102471.63;677763;29;1977;-50
2022/02/27 00:21:53;;;;;;;7.80;3.40;;;;;;;0.24;100.00;102476.88;674688;29;4373;-53
2022/02/27 00:22:13;;;;;;;8.25;3.30;;;;;;;0.22;99.87;102478.44;676524;29;1304;-51
2022/02/27 00:22:34;;;;;;;8.13;3.30;;;;;;;0.21;100.00;102473.19;679000;29;916;-51
2022/02/27 00:22:58;;;;;;;8.77;3.00;;;;;;;0.22;100.00;102477.56;679027;28;3423;-54
2022/02/27 00:23:18;;;;;;;8.38;3.28;;;;;;;0.21;100.00;102476.69;679179;28;1048;-53
2022/02/27 00:23:38;;;;;;;10.13;3.37;;;;;;;0.19;100.00;102485.97;677731;29;1168;-50
2022/02/27 00:24:00;;;;;;;9.73;3.40;;;;;;;0.18;100.00;102468.78;676792;29;1180;-50
2022/02/27 00:24:20;;;;;;;8.93;3.10;;;;;;;0.19;99.93;102480.81;678491;29;793;-51
2022/02/27 00:24:40;;;;;;;9.88;3.28;;;;;;;0.19;100.00;102474.78;677892;29;840;-52
2022/02/27 00:25:01;;;;;;;9.13;3.27;;;;;;;0.18;100.00;102481.63;677867;29;4332;-50
2022/02/27 00:25:21;;;;;;;9.18;3.22;;;;;;;0.18;100.00;102476.50;677236;28;875;-52
2022/02/27 00:25:42;;;;;;;9.13;3.37;;;;;;;0.18;100.00;102476.50;679520;29;3538;-51
2022/02/27 00:26:02;;;;;;;8.97;3.43;;;;;;;0.17;99.65;102473.00;678257;28;3626;-54
2022/02/27 00:26:23;;;;;;;7.60;3.40;;;;;;;0.16;99.79;102472.91;679469;28;1455;-50
2022/02/27 00:26:43;;;;;;;9.27;3.80;;;;;;;0.16;99.49;102476.34;678849;28;981;-50
2022/02/27 00:27:04;;;;;;;9.00;3.93;;;;;;;0.16;100.00;102472.91;679532;28;1285;-51
2022/02/27 00:27:24;;;;;;;9.27;3.90;;;;;;;0.15;100.00;102471.13;680036;29;803;-52
2022/02/27 00:27:45;;;;;;;11.30;3.75;;;;;;;0.11;99.90;102470.03;677581;29;2112;-51
2022/02/27 00:28:09;;;;;;;12.05;3.72;;;;;;;0.11;100.00;102469.13;675336;29;4430;-50
2022/02/27 00:28:30;;;;;;;8.57;3.20;;;;;;;0.14;99.82;102469.34;677328;29;1041;-50
2022/02/27 00:28:52;;;;;;;7.68;3.03;;;;;;;0.15;100.00;102473.69;677008;29;3484;-51
2022/02/27 00:29:13;;;;;;;8.67;3.20;;;;;;;0.15;100.00;102476.25;676822;29;1284;-50
2022/02/27 00:29:33;;;;;;;10.23;3.67;;;;;;;0.15;100.00;102471.13;676574;29;1176;-52
2022/02/27 00:29:55;;;;;;;8.65;3.63;;;;;;;0.13;100.00;102470.13;677248;29;907;-51
2022/02/27 00:30:16;;;;;;;8.57;3.40;;;;;;;0.14;100.00;102470.22;676402;29;723;-52
2022/02/27 00:30:39;;;;;;;8.37;3.50;;;;;;;0.13;100.00;102462.41;677038;29;935;-51
2022/02/27 00:30:59;;;;;;;9.77;3.38;;;;;;;0.12;99.56;102468.34;676585;29;4413;-53
2022/02/27 00:31:20;;;;;;;8.05;3.20;;;;;;;0.15;99.98;102460.81;674224;29;1158;-53
2022/02/27 00:31:41;;;;;;;9.60;3.37;;;;;;;0.15;100.00;102465.97;675388;29;2037;-51
2022/02/27 00:32:02;;;;;;;9.30;3.10;;;;;;;0.15;100.00;102465.97;675998;29;4063;-51
2022/02/27 00:32:23;;;;;;;7.88;2.90;;;;;;;0.14;100.00;102466.78;676504;29;1046;-53
2022/02/27 00:32:43;;;;;;;8.50;3.23;;;;;;;0.12;100.00;102460.63;676881;29;1505;-51
2022/02/27 00:33:05;;;;;;;9.48;3.28;;;;;;;0.14;100.00;102474.50;677217;29;895;-53
2022/02/27 00:33:25;;;;;;;8.55;3.13;;;;;;;0.14;100.00;102465.09;677297;29;1222;-52
2022/02/27 00:33:46;;;;;;;8.15;3.05;;;;;;;0.14;100.00;102471.94;677827;29;1147;-54
2022/02/27 00:34:06;;;;;;;9.10;3.43;;;;;;;0.13;100.00;102468.44;676038;29;4503;-50
2022/02/27 00:34:27;;;;;;;8.73;3.45;;;;;;;0.14;100.00;102474.50;677299;29;875;-50
2022/02/27 00:34:48;;;;;;;8.80;3.40;;;;;;;0.15;100.00;102466.88;677048;29;3312;-51
2022/02/27 00:35:09;;;;;;;8.73;3.17;;;;;;;0.15;100.00;102465.97;674292;29;1473;-51
2022/02/27 00:35:29;;;;;;;8.05;3.40;;;;;;;0.15;100.00;102473.69;674751;29;1539;-51
2022/02/27 00:35:51;;;;;;;8.85;3.05;;;;;;;0.15;99.97;102471.13;674741;29;905;-51
2022/02/27 00:36:11;;;;;;;7.90;3.30;;;;;;;0.15;100.00;102469.44;671724;29;2059;-51
2022/02/27 00:36:32;;;;;;;8.53;3.50;;;;;;;0.15;99.91;102465.97;671150;29;902;-53
2022/02/27 00:36:55;;;;;;;8.77;3.60;;;;;;;0.16;100.00;102465.19;671961;29;4623;-51
2022/02/27 00:37:16;;;;;;;7.60;3.47;;;;;;;0.16;100.00;102465.19;674226;29;955;-54
2022/02/27 00:37:36;;;;;;;8.70;3.23;;;;;;;0.14;100.00;102469.34;674252;29;3357;-51
2022/02/27 00:37:57;;;;;;;8.50;3.00;;;;;;;0.12;99.16;102465.78;674374;29;3555;-53
2022/02/27 00:38:18;;;;;;;9.10;3.03;;;;;;;0.12;99.48;102463.19;674514;29;1061;-50
2022/02/27 00:38:38;;;;;;;7.78;3.35;;;;;;;0.14;99.53;102472.81;673828;29;1013;-51
2022/02/27 00:38:58;;;;;;;7.53;3.27;;;;;;;0.14;100.00;102465.09;674682;29;1053;-50
2022/02/27 00:39:20;;;;;;;7.70;3.30;;;;;;;0.16;100.00;102462.63;674103;29;4535;-51
2022/02/27 00:39:41;;;;;;;10.23;3.50;;;;;;;0.14;100.00;102467.66;674542;29;992;-50
2022/02/27 00:40:04;;;;;;;9.40;3.30;;;;;;;0.15;100.00;102463.41;671272;29;4395;-51
2022/02/27 00:40:25;;;;;;;8.65;3.10;;;;;;;0.12;99.60;102468.34;673284;29;1252;-51
2022/02/27 00:40:45;;;;;;;6.90;3.03;;;;;;;0.10;99.58;102470.81;673727;29;3490;-50
2022/02/27 00:41:06;;;;;;;8.65;3.20;;;;;;;0.12;100.00;102465.78;668192;29;1426;-52
2022/02/27 00:41:26;;;;;;;7.90;2.97;;;;;;;0.13;100.00;102463.28;668913;29;1693;-51
2022/02/27 00:41:46;;;;;;;9.33;3.30;;;;;;;0.11;100.00;102464.88;669587;29;1944;-53
2022/02/27 00:42:07;;;;;;;9.30;3.23;;;;;;;0.12;99.74;102468.34;670957;29;1234;-51
2022/02/27 00:42:27;;;;;;;8.30;2.92;;;;;;;0.12;100.00;102468.34;674599;29;833;-52
2022/02/27 00:42:48;;;;;;;8.10;3.17;;;;;;;0.13;100.00;102462.41;673194;29;1206;-54
2022/02/27 00:43:08;;;;;;;7.95;3.30;;;;;;;0.12;100.00;102465.78;676222;29;4496;-51
2022/02/27 00:43:29;;;;;;;8.63;3.23;;;;;;;0.14;100.00;102469.34;677235;29;3331;-51
2022/02/27 00:43:49;;;;;;;7.57;3.22;;;;;;;0.11;99.70;102466.56;674497;29;2077;-52
2022/02/27 00:44:09;;;;;;;8.33;3.00;;;;;;;0.10;99.84;102457.06;673669;29;1480;-52
2022/02/27 00:44:30;;;;;;;9.00;3.05;;;;;;;0.11;99.90;102456.25;673341;29;1136;-51
2022/02/27 00:44:51;;;;;;;7.57;3.00;;;;;;;0.10;100.00;102463.09;676235;29;1269;-52
2022/02/27 00:45:11;;;;;;;7.40;3.17;;;;;;;0.10;99.73;102457.06;674958;29;907;-51
2022/02/27 00:45:32;;;;;;;8.10;3.13;;;;;;;0.06;99.43;102458.53;676451;29;781;-50
2022/02/27 00:45:52;;;;;;;8.87;3.00;;;;;;;0.08;100.00;102458.63;675771;29;4534;-53
2022/02/27 00:46:13;;;;;;;9.55;3.15;;;;;;;0.09;99.74;102457.84;673506;29;1039;-51
2022/02/27 00:46:33;;;;;;;10.00;3.20;;;;;;;0.09;99.32;102466.44;672886;29;3296;-51
2022/02/27 00:46:53;;;;;;;9.20;2.80;;;;;;;0.09;99.63;102465.56;675513;29;1294;-54
2022/02/27 00:47:14;;;;;;;9.77;2.97;;;;;;;0.09;99.18;102461.31;673867;29;1272;-50
2022/02/27 00:47:34;;;;;;;9.05;3.13;;;;;;;0.10;100.00;102462.22;673824;29;792;-51
2022/02/27 00:47:55;;;;;;;6.63;2.77;;;;;;;0.11;99.90;102458.84;673685;29;1345;-51
2022/02/27 00:48:15;;;;;;;8.13;3.10;;;;;;;0.10;100.00;102462.22;676308;29;1158;-53
2022/02/27 00:48:36;;;;;;;7.83;3.00;;;;;;;0.12;100.00;102458.06;676089;29;892;-50
2022/02/27 00:48:57;;;;;;;8.80;3.13;;;;;;;0.10;100.00;102462.22;677045;28;4431;-51
2022/02/27 00:49:17;;;;;;;9.63;3.17;;;;;;;0.09;100.00;102455.28;680048;29;2217;-51
2022/02/27 00:49:38;;;;;;;8.73;3.13;;;;;;;0.08;100.00;102458.63;676884;29;3343;-51
2022/02/27 00:49:58;;;;;;;7.23;2.83;;;;;;;0.09;100.00;102463.00;676424;29;1132;-51
2022/02/27 00:50:18;;;;;;;9.00;3.00;;;;;;;0.05;100.00;102459.31;676023;29;1109;-53
2022/02/27 00:50:39;;;;;;;9.75;3.03;;;;;;;0.06;99.79;102460.22;674136;29;968;-50
2022/02/27 00:50:59;;;;;;;8.97;3.03;;;;;;;0.08;100.00;102458.63;671250;29;1123;-52
2022/02/27 00:51:19;;;;;;;8.55;2.85;;;;;;;0.07;100.00;102452.63;672015;29;882;-53
2022/02/27 00:51:40;;;;;;;10.20;2.83;;;;;;;0.07;100.00;102456.84;674713;29;912;-50
2022/02/27 00:52:01;;;;;;;9.23;2.92;;;;;;;0.07;100.00;102452.63;670676;29;4339;-50
2022/02/27 00:52:22;;;;;;;7.47;2.97;;;;;;;0.10;99.88;102457.06;672102;29;3336;-53
2022/02/27 00:52:43;;;;;;;9.68;2.95;;;;;;;0.09;99.83;102452.72;674653;29;2170;-51
2022/02/27 00:53:06;;;;;;;11.32;3.50;;;;;;;0.08;99.70;102458.63;675132;29;1100;-52
2022/02/27 00:53:26;;;;;;;9.05;3.30;;;;;;;0.07;99.68;102452.63;675259;29;1452;-51
2022/02/27 00:53:46;;;;;;;8.80;3.55;;;;;;;0.09;99.23;102456.16;673126;29;1405;-50
2022/02/27 00:54:07;;;;;;;10.07;4.20;;;;;;;0.10;100.00;102462.22;670571;29;981;-51
2022/02/27 00:54:28;;;;;;;11.00;4.70;;;;;;;0.09;100.00;102455.28;670777;29;779;-52
2022/02/27 00:54:50;;;;;;;11.80;4.75;;;;;;;0.11;100.00;102451.13;669082;29;883;-51
2022/02/27 00:55:10;;;;;;;11.77;5.45;;;;;;;0.11;100.00;102453.69;668186;29;6058;-52
2022/02/27 00:55:30;;;;;;;13.65;5.00;;;;;;;0.11;100.00;102448.53;673509;29;2211;-50
2022/02/27 00:55:51;;;;;;;15.20;5.80;;;;;;;0.12;100.00;102455.47;675423;29;1266;-50
2022/02/27 00:56:12;;;;;;;13.15;5.45;;;;;;;0.12;100.00;102450.34;679041;28;1171;-54
2022/02/27 00:56:36;;;;;;;11.18;5.88;;;;;;;0.11;100.00;102448.53;680101;29;809;-53
2022/02/27 00:56:56;;;;;;;13.57;6.03;;;;;;;0.11;100.00;102444.31;676085;29;1212;-51
2022/02/27 00:57:17;;;;;;;12.30;5.53;;;;;;;0.11;100.00;102449.47;673564;29;790;-52
2022/02/27 00:57:38;;;;;;;11.65;4.40;;;;;;;0.09;100.00;102447.56;674150;29;1388;-51
2022/02/27 00:57:58;;;;;;;11.87;5.07;;;;;;;0.10;100.00;102454.50;673235;29;5087;-51
2022/02/27 00:58:19;;;;;;;13.20;5.45;;;;;;;0.08;100.00;102449.22;674654;29;3475;-59
2022/02/27 00:58:39;;;;;;;11.63;5.43;;;;;;;0.11;100.00;102453.69;674865;29;3912;-51
2022/02/27 00:58:59;;;;;;;11.88;5.28;;;;;;;0.10;100.00;102449.38;676634;29;1124;-50
2022/02/27 00:59:20;;;;;;;12.30;4.97;;;;;;;0.11;100.00;102453.69;679645;29;1240;-52
2022/02/27 00:59:44;;;;;;;10.20;4.60;;;;;;;0.10;100.00;102454.50;679167;29;1193;-51
2022/02/27 01:00:06;;;;;;;9.10;4.32;;;;;;;0.10;100.00;102447.66;678924;29;1037;-51
2022/02/27 01:00:28;;;;;;;11.40;4.60;;;;;;;0.09;100.00;102442.44;676439;29;857;-51
2022/02/27 01:00:48;;;;;;;10.73;4.60;;;;;;;0.09;100.00;102445.88;675320;29;1380;-53
2022/02/27 01:01:09;;;;;;;9.27;4.05;;;;;;;0.08;100.00;102448.34;675305;29;4453;-51
2022/02/27 01:01:30;;;;;;;9.60;3.67;;;;;;;0.06;99.63;102448.25;675510;29;3538;-50
2022/02/27 01:01:50;;;;;;;9.52;3.70;;;;;;;0.05;99.93;102453.31;677464;29;1918;-51
2022/02/27 01:02:12;;;;;;;9.65;3.95;;;;;;;0.05;99.83;102449.03;676880;29;1251;-51
2022/02/27 01:02:32;;;;;;;9.65;4.22;;;;;;;0.06;100.00;102440.53;679525;29;833;-51
2022/02/27 01:02:53;;;;;;;9.57;4.22;;;;;;;0.06;100.00;102444.81;679605;29;900;-51
2022/02/27 01:03:14;;;;;;;9.57;4.00;;;;;;;0.04;100.00;102444.66;679672;28;1265;-52
2022/02/27 01:03:34;;;;;;;9.27;3.83;;;;;;;0.06;100.00;102444.81;680024;29;813;-51
2022/02/27 01:03:55;;;;;;;9.93;4.20;;;;;;;0.06;100.00;102444.81;679020;29;4532;-53
2022/02/27 01:04:17;;;;;;;11.93;4.57;;;;;;;0.05;100.00;102443.88;679587;28;3111;-51
2022/02/27 01:04:38;;;;;;;9.93;4.17;;;;;;;0.04;100.00;102443.78;678550;28;3882;-50
2022/02/27 01:04:58;;;;;;;8.93;3.83;;;;;;;0.05;100.00;102438.75;676839;29;1409;-52
2022/02/27 01:05:19;;;;;;;9.93;4.10;;;;;;;0.06;100.00;102442.22;673946;29;1144;-53
2022/02/27 01:05:39;;;;;;;10.50;4.60;;;;;;;0.05;100.00;102437.88;673516;29;1004;-50
2022/02/27 01:06:00;;;;;;;10.13;4.50;;;;;;;0.07;100.00;102441.41;672576;29;1059;-52
2022/02/27 01:06:20;;;;;;;11.37;4.97;;;;;;;0.03;100.00;102444.56;673984;29;1721;-50
2022/02/27 01:06:41;;;;;;;10.73;4.63;;;;;;;0.04;100.00;102436.06;672500;29;829;-51
2022/02/27 01:07:05;;;;;;;12.05;5.43;;;;;;;0.04;100.00;102436.06;671018;29;4404;-53
2022/02/27 01:07:26;;;;;;;12.80;5.13;;;;;;;0.01;100.00;102441.03;675982;29;3380;-51
2022/02/27 01:07:46;;;;;;;12.55;4.70;;;;;;;0.01;100.00;102441.91;674581;29;1208;-50
2022/02/27 01:08:07;;;;;;;8.87;4.10;;;;;;;0.03;100.00;102437.78;675045;29;1116;-54
2022/02/27 01:08:28;;;;;;;10.73;4.53;;;;;;;-0.01;100.00;102436.66;674763;29;1564;-51
2022/02/27 01:08:48;;;;;;;10.70;4.32;;;;;;;-0.03;100.00;102434.78;674596;29;1200;-52
2022/02/27 01:09:09;;;;;;;8.80;4.20;;;;;;;-0.01;100.00;102439.22;674477;29;1481;-51
2022/02/27 01:09:30;;;;;;;10.67;4.13;;;;;;;0.01;100.00;102435.88;676750;29;834;-52
2022/02/27 01:09:50;;;;;;;10.98;4.40;;;;;;;-0.01;100.00;102438.34;675264;29;4314;-52
2022/02/27 01:10:13;;;;;;;8.38;3.92;;;;;;;0.00;100.00;102435.00;675834;29;3051;-51
2022/02/27 01:10:33;;;;;;;9.60;4.30;;;;;;;-0.01;100.00;102441.81;676800;29;3679;-54
2022/02/27 01:10:55;;;;;;;9.88;4.43;;;;;;;-0.02;100.00;102432.31;677060;29;1390;-51
2022/02/27 01:11:16;;;;;;;8.65;3.88;;;;;;;-0.04;100.00;102439.03;677163;29;1131;-53
2022/02/27 01:11:36;;;;;;;9.07;3.83;;;;;;;-0.02;100.00;102436.56;676637;29;774;-52
2022/02/27 01:11:56;;;;;;;8.43;4.00;;;;;;;-0.01;100.00;102433.22;677001;29;1447;-52
2022/02/27 01:12:17;;;;;;;10.00;3.80;;;;;;;-0.01;100.00;102433.22;674018;29;881;-51
2022/02/27 01:12:38;;;;;;;10.65;3.83;;;;;;;-0.01;100.00;102428.94;674204;29;953;-52
2022/02/27 01:12:58;;;;;;;8.48;3.80;;;;;;;-0.01;100.00;102428.94;673601;29;4461;-52
2022/02/27 01:13:18;;;;;;;8.10;3.33;;;;;;;-0.01;100.00;102433.22;674881;29;3438;-50
2022/02/27 01:13:39;;;;;;;9.10;3.40;;;;;;;-0.03;100.00;102432.19;674043;29;1288;-52
2022/02/27 01:14:02;;;;;;;8.30;3.45;;;;;;;-0.03;100.00;102430.53;675011;29;1384;-51
2022/02/27 01:14:23;;;;;;;9.48;3.80;;;;;;;-0.02;100.00;102424.59;677055;29;1425;-55
2022/02/27 01:14:43;;;;;;;8.60;3.77;;;;;;;-0.02;100.00;102422.00;676674;29;928;-52
2022/02/27 01:15:07;;;;;;;8.95;3.55;;;;;;;0.01;100.00;102428.16;673311;29;1214;-52
2022/02/27 01:15:27;;;;;;;8.35;3.42;;;;;;;0.02;100.00;102432.53;675100;29;2114;-52
2022/02/27 01:15:48;;;;;;;7.43;3.30;;;;;;;-0.03;100.00;102427.97;672129;29;1476;-51
2022/02/27 01:16:09;;;;;;;7.63;3.30;;;;;;;-0.03;100.00;102425.41;668342;29;4464;-51
2022/02/27 01:16:30;;;;;;;7.18;3.30;;;;;;;-0.02;100.00;102427.16;667155;29;2210;-51
2022/02/27 01:16:52;;;;;;;9.60;3.22;;;;;;;-0.02;100.00;102422.00;667677;29;2802;-50
2022/02/27 01:17:13;;;;;;;7.55;3.15;;;;;;;-0.02;100.00;102427.16;670112;29;1560;-51
2022/02/27 01:17:34;;;;;;;7.53;3.20;;;;;;;-0.01;100.00;102434.09;673039;29;1037;-53
2022/02/27 01:17:55;;;;;;;8.00;3.38;;;;;;;-0.05;100.00;102426.97;669923;29;1336;-50
2022/02/27 01:18:15;;;;;;;9.23;3.30;;;;;;;-0.05;100.00;102426.97;671663;29;1210;-52
2022/02/27 01:18:36;;;;;;;6.85;2.90;;;;;;;-0.03;100.00;102429.63;673286;29;833;-51
2022/02/27 01:18:57;;;;;;;7.55;2.72;;;;;;;-0.01;100.00;102431.53;671343;29;4525;-53
2022/02/27 01:19:17;;;;;;;9.77;3.20;;;;;;;-0.02;100.00;102429.72;670806;29;3402;-50
2022/02/27 01:19:38;;;;;;;8.63;3.03;;;;;;;-0.04;100.00;102426.19;671262;29;1331;-49
2022/02/27 01:19:58;;;;;;;7.27;3.23;;;;;;;-0.03;100.00;102434.78;673497;29;1368;-50
2022/02/27 01:20:19;;;;;;;7.75;2.90;;;;;;;-0.03;100.00;102427.97;676408;29;1043;-50
2022/02/27 01:20:39;;;;;;;9.27;3.00;;;;;;;-0.03;100.00;102430.53;676787;29;1408;-53
2022/02/27 01:20:59;;;;;;;9.83;3.30;;;;;;;-0.02;100.00;102432.31;676356;29;1249;-53
2022/02/27 01:21:20;;;;;;;10.27;3.20;;;;;;;-0.03;100.00;102430.53;677201;29;1301;-52
2022/02/27 01:21:40;;;;;;;8.98;3.10;;;;;;;-0.03;100.00;102430.53;676903;29;1911;-51
2022/02/27 01:22:01;;;;;;;7.93;3.00;;;;;;;-0.02;100.00;102427.16;675918;29;4702;-50
2022/02/27 01:22:22;;;;;;;7.72;3.03;;;;;;;-0.04;100.00;102428.75;677110;29;3476;-50
2022/02/27 01:22:42;;;;;;;7.87;3.07;;;;;;;-0.03;100.00;102425.41;672431;29;1473;-52
2022/02/27 01:23:03;;;;;;;10.05;2.95;;;;;;;-0.02;100.00;102424.59;672875;29;1298;-51
2022/02/27 01:23:23;;;;;;;9.33;3.33;;;;;;;-0.03;100.00;102435.69;671888;29;1555;-53
2022/02/27 01:23:44;;;;;;;9.40;3.20;;;;;;;-0.03;100.00;102433.13;674375;29;1130;-51
2022/02/27 01:24:06;;;;;;;7.57;3.15;;;;;;;-0.03;100.00;102439.91;673811;29;1341;-54
2022/02/27 01:24:27;;;;;;;7.82;2.67;;;;;;;-0.02;100.00;102437.44;675238;29;1377;-50
2022/02/27 01:24:47;;;;;;;8.40;2.80;;;;;;;-0.01;100.00;102435.78;673732;29;1221;-50
2022/02/27 01:25:09;;;;;;;9.90;2.93;;;;;;;-0.01;100.00;102439.22;673395;29;4481;-51
2022/02/27 01:25:29;;;;;;;8.35;2.70;;;;;;;0.02;99.88;102435.09;673715;29;1070;-51
2022/02/27 01:25:50;;;;;;;8.37;2.80;;;;;;;0.01;100.00;102430.75;673205;29;1145;-52
2022/02/27 01:26:11;;;;;;;8.13;2.90;;;;;;;0.01;100.00;102431.63;673909;29;1195;-52
2022/02/27 01:26:32;;;;;;;10.30;2.80;;;;;;;0.03;100.00;102435.19;672254;29;1249;-52
2022/02/27 01:26:52;;;;;;;9.65;3.45;;;;;;;0.01;100.00;102436.75;670160;29;1135;-52
2022/02/27 01:27:13;;;;;;;7.95;3.08;;;;;;;-0.01;100.00;102431.53;671707;29;1105;-50
2022/02/27 01:27:35;;;;;;;8.43;2.90;;;;;;;-0.01;100.00;102431.53;673141;29;1442;-51
2022/02/27 01:27:56;;;;;;;8.85;2.83;;;;;;;0.02;100.00;102433.41;674829;29;4329;-51
2022/02/27 01:28:16;;;;;;;8.93;2.73;;;;;;;0.09;100.00;102424.44;674980;29;3877;-51
2022/02/27 01:28:38;;;;;;;7.67;2.70;;;;;;;0.11;100.00;102428.88;673378;29;1381;-51
2022/02/27 01:28:58;;;;;;;8.02;2.70;;;;;;;0.11;99.88;102425.41;675334;29;1088;-54
2022/02/27 01:29:21;;;;;;;8.60;2.88;;;;;;;0.11;99.82;102430.53;672296;29;1417;-50
2022/02/27 01:29:43;;;;;;;8.07;2.60;;;;;;;0.10;99.92;102427.09;671573;29;1507;-52
2022/02/27 01:30:06;;;;;;;7.65;2.50;;;;;;;0.12;99.55;102437.47;671074;29;1270;-50
2022/02/27 01:30:26;;;;;;;6.88;2.72;;;;;;;0.11;99.53;102431.47;672689;29;1476;-50
2022/02/27 01:30:46;;;;;;;7.40;2.50;;;;;;;0.11;99.74;102430.53;673892;29;1237;-51
2022/02/27 01:31:09;;;;;;;8.55;2.70;;;;;;;0.10;99.84;102432.25;670440;29;4710;-53
2022/02/27 01:31:31;;;;;;;8.18;2.83;;;;;;;0.10;99.79;102436.50;672332;29;1543;-51
2022/02/27 01:31:51;;;;;;;8.20;2.97;;;;;;;0.11;100.00;102435.69;674788;29;1181;-50
2022/02/27 01:32:12;;;;;;;8.47;2.60;;;;;;;0.10;99.99;102432.25;676761;29;1100;-52
2022/02/27 01:32:32;;;;;;;7.63;2.63;;;;;;;0.11;99.72;102435.69;676272;29;1234;-50
2022/02/27 01:32:54;;;;;;;8.32;2.80;;;;;;;0.10;100.00;102429.66;677592;29;880;-52
2022/02/27 01:33:17;;;;;;;9.43;2.72;;;;;;;0.12;100.00;102429.75;676095;29;1250;-53
2022/02/27 01:33:38;;;;;;;9.23;2.80;;;;;;;0.10;100.00;102437.38;676181;29;1170;-50
2022/02/27 01:33:58;;;;;;;10.07;2.83;;;;;;;0.10;100.00;102437.38;675838;29;4879;-51
2022/02/27 01:34:19;;;;;;;8.43;2.70;;;;;;;0.10;100.00;102431.38;676769;29;3758;-51
2022/02/27 01:34:39;;;;;;;9.40;2.80;;;;;;;0.10;100.00;102433.94;673976;29;1330;-50
2022/02/27 01:35:00;;;;;;;8.65;2.85;;;;;;;0.10;99.91;102432.25;671108;29;1185;-52
2022/02/27 01:35:20;;;;;;;7.57;2.80;;;;;;;0.09;100.00;102434.72;674412;29;1341;-53
2022/02/27 01:35:41;;;;;;;6.57;2.60;;;;;;;0.06;100.00;102437.09;671706;29;1238;-52
2022/02/27 01:36:02;;;;;;;7.67;3.07;;;;;;;0.05;100.00;102435.28;671456;29;1217;-53
2022/02/27 01:36:23;;;;;;;7.25;3.30;;;;;;;0.06;100.00;102435.41;669724;29;1148;-50
2022/02/27 01:36:45;;;;;;;7.28;2.70;;;;;;;0.07;100.00;102438.84;671370;29;1429;-50
2022/02/27 01:37:06;;;;;;;8.23;2.78;;;;;;;0.07;100.00;102442.34;672885;29;4566;-52
2022/02/27 01:37:26;;;;;;;8.27;2.88;;;;;;;0.09;100.00;102434.72;672372;29;1518;-51
2022/02/27 01:37:47;;;;;;;8.80;3.00;;;;;;;0.10;100.00;102428.78;671706;29;1347;-51
2022/02/27 01:38:07;;;;;;;9.20;3.15;;;;;;;0.09;100.00;102439.84;669497;29;1285;-51
2022/02/27 01:38:27;;;;;;;8.87;3.20;;;;;;;0.10;100.00;102436.50;673744;29;838;-51
2022/02/27 01:38:48;;;;;;;7.93;3.08;;;;;;;0.11;99.90;102440.84;675065;29;885;-53
2022/02/27 01:39:10;;;;;;;8.15;2.63;;;;;;;0.11;99.96;102434.03;674626;29;4342;-50
2022/02/27 01:39:31;;;;;;;9.00;2.53;;;;;;;0.14;99.70;102443.63;675589;29;1446;-51
2022/02/27 01:39:52;;;;;;;8.35;2.70;;;;;;;0.12;99.42;102440.06;672039;29;4395;-50